Greenville, TX

3:11 PM CDT on April 23, 2017 (GMT -0500)
Majors

Weather History for KGVT - January, 2014

Change the Weather History Date:

Sunday, January 12, 2014

  Actual Average Record
Temperature  
Mean Temperature 52 °F -  
Max Temperature 69 °F 54 °F 78 °F (2017)
Min Temperature 35 °F 38 °F 21 °F (2011)
Degree Days  
Heating Degree Days 13    
Growing Degree Days 2 (Base 50)    
Moisture  
Dew Point 34 °F    
Average Humidity 53    
Maximum Humidity 87    
Minimum Humidity 21    
Precipitation  
Precipitation 0.00 in - - ()
Sea Level Pressure  
Sea Level Pressure 29.93 in    
Wind  
Wind Speed 10 mph (South)    
Max Wind Speed 30 mph    
Max Gust Speed 38 mph    
Visibility 10 miles    
Events      
Averages and records for this station are not official NWS values.
T = Trace of Precipitation, MM = Missing Value Source: NWS Daily Summary

Daily Weather History Graph

Daily Weather History Graph

Search for Another Location

Airport or City:

Trip Planner

Search our weather history database for the weather conditions in past years. The results will help you decide how hot, cold, wet, or windy it might be!

Date:

Astronomy

Jan. 12, 2014 Rise Set
Actual Time 7:27 AM CST 5:37 PM CST
Civil Twilight 7:01 AM CST 6:04 PM CST
Nautical Twilight 6:30 AM CST 6:35 PM CST
Astronomical Twilight 6:00 AM CST 7:04 PM CST
Moon 3:05 PM CST (1/12) 4:28 AM CST (1/12)
Length of Visible Light 11h 03m
Length of Day
10h 09m
Waxing Gibbous, 90% of the Moon is Illuminated
Jan 12
Waxing Gibbous
Jan 15
Full
Jan 23
Last Quarter
Jan 30
New
Feb 6
First Quarter

Hourly Weather History & Observations

Time (CST) Temp. Windchill Dew Point Humidity Pressure Visibility Wind Dir Wind Speed Gust Speed Precip Events Conditions
12:15 AM 37.4 °F - 32.0 °F 81% 30.06 in 10.0 mi Calm Calm - N/A   Clear
12:35 AM 37.4 °F - 32.0 °F 81% 30.05 in 10.0 mi Calm Calm - N/A   Clear
12:55 AM 37.4 °F - 32.0 °F 81% 30.05 in 10.0 mi Calm Calm - N/A   Clear
1:15 AM 37.4 °F - 32.0 °F 81% 30.05 in 10.0 mi Calm Calm - N/A   Clear
1:35 AM 35.6 °F 29.9 °F 32.0 °F 87% 30.04 in 10.0 mi SSE 6.9 mph - N/A   Clear
1:55 AM 39.2 °F 35.0 °F 32.0 °F 75% 30.03 in 10.0 mi South 5.8 mph - N/A   Clear
2:15 AM 39.2 °F 35.0 °F 32.0 °F 75% 30.02 in 10.0 mi SSE 5.8 mph - N/A   Clear
2:35 AM 39.2 °F 37.0 °F 32.0 °F 75% 30.02 in 10.0 mi SSE 3.5 mph - N/A   Clear
2:55 AM 35.6 °F 31.7 °F 32.0 °F 87% 30.03 in 10.0 mi South 4.6 mph - N/A   Clear
3:15 AM 41.0 °F 38.0 °F 32.0 °F 70% 30.04 in 10.0 mi South 4.6 mph - N/A   Clear
3:35 AM 37.4 °F 33.8 °F 32.0 °F 81% 30.04 in 10.0 mi South 4.6 mph - N/A   Clear
3:55 AM 37.4 °F 33.8 °F 32.0 °F 81% 30.03 in 10.0 mi South 4.6 mph - N/A   Clear
4:15 AM 35.6 °F 32.8 °F 30.2 °F 81% 30.03 in 10.0 mi SSE 3.5 mph - N/A   Clear
4:35 AM 35.6 °F 29.9 °F 32.0 °F 87% 30.02 in 10.0 mi SSE 6.9 mph - N/A   Clear
4:55 AM 37.4 °F 32.8 °F 32.0 °F 81% 30.02 in 10.0 mi SSE 5.8 mph - N/A   Clear
5:15 AM 37.4 °F 33.8 °F 32.0 °F 81% 30.01 in 10.0 mi SSE 4.6 mph - N/A   Clear
5:35 AM 37.4 °F 32.8 °F 32.0 °F 81% 30.01 in 10.0 mi South 5.8 mph - N/A   Clear
5:55 AM 37.4 °F 32.8 °F 32.0 °F 81% 30.01 in 10.0 mi South 5.8 mph - N/A   Clear
6:15 AM 37.4 °F 32.8 °F 32.0 °F 81% 30.00 in 10.0 mi SSE 5.8 mph - N/A   Clear
6:35 AM 41.0 °F 37.1 °F 32.0 °F 70% 30.01 in 10.0 mi South 5.8 mph - N/A   Clear
6:55 AM 39.2 °F 35.9 °F 32.0 °F 75% 30.01 in 10.0 mi South 4.6 mph - N/A   Clear
7:15 AM 37.4 °F 32.8 °F 32.0 °F 81% 30.01 in 10.0 mi SSE 5.8 mph - N/A   Clear
7:35 AM 37.4 °F 32.8 °F 32.0 °F 81% 30.02 in 10.0 mi South 5.8 mph - N/A   Clear
7:55 AM 41.0 °F 35.2 °F 33.8 °F 76% 30.02 in 10.0 mi South 9.2 mph - N/A   Clear
8:15 AM 44.6 °F 40.2 °F 33.8 °F 66% 30.02 in 10.0 mi South 8.1 mph - N/A   Clear
8:35 AM 46.4 °F 41.9 °F 33.8 °F 62% 30.02 in 10.0 mi South 9.2 mph - N/A   Clear
8:55 AM 50.0 °F - 35.6 °F 58% 30.02 in 10.0 mi South 8.1 mph - N/A   Clear
9:15 AM 51.8 °F - 35.6 °F 54% 30.03 in 10.0 mi South 11.5 mph - N/A   Clear
9:35 AM 55.4 °F - 32.0 °F 41% 30.03 in 10.0 mi South 12.7 mph - N/A   Clear
9:55 AM 59.0 °F - 32.0 °F 36% 30.03 in 10.0 mi South 15.0 mph - N/A   Clear
10:15 AM 59.0 °F - 30.2 °F 34% 30.03 in 10.0 mi South 13.8 mph - N/A   Clear
10:35 AM 60.8 °F - 30.2 °F 31% 30.02 in 10.0 mi South 19.6 mph 26.5 mph N/A   Clear
10:55 AM 62.6 °F - 30.2 °F 30% 30.01 in 10.0 mi South 19.6 mph 31.1 mph N/A   Clear
11:15 AM 64.4 °F - 28.4 °F 26% 30.00 in 10.0 mi South 23.0 mph 33.4 mph N/A   Clear
11:35 AM 64.4 °F - 30.2 °F 28% 29.98 in 10.0 mi SSW 20.7 mph 28.8 mph N/A   Clear
11:55 AM 66.2 °F - 28.4 °F 24% 29.97 in 10.0 mi SSW 26.5 mph 34.5 mph N/A   Clear
12:15 PM 66.2 °F - 30.2 °F 26% 29.95 in 10.0 mi South 20.7 mph 27.6 mph N/A   Clear
12:35 PM 68.0 °F - 32.0 °F 26% 29.93 in 10.0 mi South 21.9 mph 31.1 mph N/A   Clear
12:55 PM 68.0 °F - 30.2 °F 24% 29.91 in 10.0 mi South 28.8 mph 34.5 mph N/A   Clear
1:15 PM 69.8 °F - 28.4 °F 21% 29.90 in 10.0 mi South 25.3 mph 35.7 mph N/A   Clear
1:35 PM 69.8 °F - 28.4 °F 21% 29.89 in 10.0 mi South 29.9 mph 35.7 mph N/A   Clear
1:55 PM 69.8 °F - 28.4 °F 21% 29.88 in 10.0 mi South 26.5 mph 38.0 mph N/A   Clear
2:15 PM 69.8 °F - 28.4 °F 21% 29.87 in 10.0 mi South 28.8 mph 34.5 mph N/A   Clear
2:35 PM 69.8 °F - 28.4 °F 21% 29.87 in 10.0 mi SSW 23.0 mph 38.0 mph N/A   Clear
2:55 PM 69.8 °F - 30.2 °F 23% 29.87 in 10.0 mi South 25.3 mph 33.4 mph N/A   Clear
3:15 PM 69.8 °F - 30.2 °F 23% 29.86 in 10.0 mi South 18.4 mph 32.2 mph N/A   Clear
3:35 PM 68.0 °F - 30.2 °F 24% 29.86 in 10.0 mi South 29.9 mph 38.0 mph N/A   Clear
3:55 PM 68.0 °F - 30.2 °F 24% 29.85 in 10.0 mi South 21.9 mph 32.2 mph N/A   Clear
4:15 PM 66.2 °F - 32.0 °F 28% 29.85 in 10.0 mi South 23.0 mph 32.2 mph N/A   Clear
4:35 PM 64.4 °F - 32.0 °F 30% 29.85 in 10.0 mi South 20.7 mph 26.5 mph N/A   Clear
4:55 PM 64.4 °F - 32.0 °F 30% 29.84 in 10.0 mi South 19.6 mph 29.9 mph N/A   Clear
5:15 PM 62.6 °F - 32.0 °F 32% 29.84 in 10.0 mi South 17.3 mph 25.3 mph N/A   Clear
5:35 PM 62.6 °F - 32.0 °F 32% 29.83 in 10.0 mi South 19.6 mph 26.5 mph N/A   Clear
5:55 PM 60.8 °F - 32.0 °F 34% 29.82 in 10.0 mi South 26.5 mph 29.9 mph N/A   Clear
6:15 PM 60.8 °F - 33.8 °F 36% 29.83 in 10.0 mi South 17.3 mph 24.2 mph N/A   Clear
6:35 PM 60.8 °F - 33.8 °F 36% 29.84 in 10.0 mi South 17.3 mph 27.6 mph N/A   Clear
6:55 PM 59.0 °F - 35.6 °F 42% 29.83 in 10.0 mi South 16.1 mph 20.7 mph N/A   Clear
7:15 PM 59.0 °F - 37.4 °F 45% 29.84 in 10.0 mi South 13.8 mph - N/A   Clear
7:35 PM 59.0 °F - 39.2 °F 48% 29.82 in 10.0 mi South 18.4 mph 23.0 mph N/A   Clear
7:55 PM 59.0 °F - 41.0 °F 51% 29.83 in 10.0 mi South 16.1 mph 21.9 mph N/A   Clear
8:15 PM 60.8 °F - 41.0 °F 48% 29.82 in 10.0 mi South 16.1 mph 21.9 mph N/A   Clear
8:35 PM 60.8 °F - 41.0 °F 48% 29.82 in 10.0 mi South 20.7 mph 25.3 mph N/A   Clear
8:55 PM 60.8 °F - 42.8 °F 52% 29.82 in 10.0 mi South 18.4 mph 27.6 mph N/A   Clear
9:15 PM 59.0 °F - 42.8 °F 55% 29.82 in 10.0 mi South 19.6 mph 26.5 mph N/A   Clear
9:35 PM 59.0 °F - 44.6 °F 59% 29.82 in 10.0 mi South 17.3 mph 24.2 mph N/A   Clear
9:55 PM 59.0 °F - 44.6 °F 59% 29.82 in 10.0 mi South 16.1 mph 24.2 mph N/A   Clear
10:15 PM 59.0 °F - 46.4 °F 63% 29.82 in 10.0 mi South 15.0 mph 23.0 mph N/A   Clear
10:35 PM 59.0 °F - 48.2 °F 67% 29.82 in 10.0 mi South 17.3 mph 21.9 mph N/A   Clear
10:55 PM 60.8 °F - 50.0 °F 68% 29.82 in 10.0 mi South 18.4 mph 21.9 mph N/A   Clear
11:15 PM 60.8 °F - 50.0 °F 68% 29.82 in 10.0 mi South 18.4 mph 24.2 mph N/A   Clear
11:35 PM 60.8 °F - 51.8 °F 72% 29.82 in 10.0 mi South 17.3 mph 27.6 mph N/A   Clear
11:55 PM 60.8 °F - 51.8 °F 72% 29.82 in 10.0 mi South 20.7 mph 26.5 mph N/A   Clear